sensor_id;sensor_type;location;lat;lon;timestamp;pressure;altitude;pressure_sealevel;temperature;humidity
34961;BME280;30789;52.030;7.110;2023-07-13T00:00:46;100616.28;;;16.48;69.50
34961;BME280;30789;52.030;7.110;2023-07-13T00:03:13;100617.13;;;16.45;69.21
34961;BME280;30789;52.030;7.110;2023-07-13T00:05:39;100619.91;;;16.22;69.86
34961;BME280;30789;52.030;7.110;2023-07-13T00:08:06;100625.69;;;16.31;70.17
34961;BME280;30789;52.030;7.110;2023-07-13T00:10:33;100619.22;;;16.38;69.93
34961;BME280;30789;52.030;7.110;2023-07-13T00:13:00;100622.81;;;16.38;70.63
34961;BME280;30789;52.030;7.110;2023-07-13T00:15:28;100616.00;;;16.39;70.01
34961;BME280;30789;52.030;7.110;2023-07-13T00:17:57;100614.78;;;16.40;70.39
34961;BME280;30789;52.030;7.110;2023-07-13T00:20:26;100620.03;;;16.38;70.76
34961;BME280;30789;52.030;7.110;2023-07-13T00:22:53;100632.34;;;16.37;70.23
34961;BME280;30789;52.030;7.110;2023-07-13T00:25:20;100630.78;;;16.36;69.93
34961;BME280;30789;52.030;7.110;2023-07-13T00:27:49;100621.63;;;16.36;70.34
34961;BME280;30789;52.030;7.110;2023-07-13T00:30:16;100627.63;;;16.34;69.83
34961;BME280;30789;52.030;7.110;2023-07-13T00:32:44;100637.47;;;16.39;69.82
34961;BME280;30789;52.030;7.110;2023-07-13T00:35:13;100629.22;;;16.35;69.67
34961;BME280;30789;52.030;7.110;2023-07-13T00:37:40;100628.41;;;16.35;69.88
34961;BME280;30789;52.030;7.110;2023-07-13T00:40:09;100636.16;;;16.24;70.29
34961;BME280;30789;52.030;7.110;2023-07-13T00:42:36;100638.47;;;16.29;70.24
34961;BME280;30789;52.030;7.110;2023-07-13T00:45:05;100635.38;;;16.23;69.96
34961;BME280;30789;52.030;7.110;2023-07-13T00:47:33;100632.63;;;16.23;69.77
34961;BME280;30789;52.030;7.110;2023-07-13T00:50:02;100628.66;;;16.21;70.46
34961;BME280;30789;52.030;7.110;2023-07-13T00:52:30;100629.84;;;16.23;69.91
34961;BME280;30789;52.030;7.110;2023-07-13T00:54:57;100635.50;;;16.16;70.19
34961;BME280;30789;52.030;7.110;2023-07-13T00:57:24;100633.81;;;16.22;70.02
34961;BME280;30789;52.030;7.110;2023-07-13T00:59:54;100630.00;;;16.13;70.46
34961;BME280;30789;52.030;7.110;2023-07-13T01:02:22;100643.59;;;16.07;70.94
34961;BME280;30789;52.030;7.110;2023-07-13T01:04:49;100635.69;;;16.06;70.68
34961;BME280;30789;52.030;7.110;2023-07-13T01:07:18;100630.13;;;16.06;70.82
34961;BME280;30789;52.030;7.110;2023-07-13T01:09:45;100636.81;;;16.08;70.30
34961;BME280;30789;52.030;7.110;2023-07-13T01:12:11;100640.53;;;16.02;70.40
34961;BME280;30789;52.030;7.110;2023-07-13T01:14:38;100643.41;;;15.95;70.58
34961;BME280;30789;52.030;7.110;2023-07-13T01:17:08;100638.94;;;16.01;70.25
34961;BME280;30789;52.030;7.110;2023-07-13T01:19:37;100633.13;;;15.92;70.51
34961;BME280;30789;52.030;7.110;2023-07-13T01:22:07;100641.41;;;15.95;70.57
34961;BME280;30789;52.030;7.110;2023-07-13T01:24:37;100634.22;;;15.98;70.17
34961;BME280;30789;52.030;7.110;2023-07-13T01:27:05;100640.25;;;15.93;70.43
34961;BME280;30789;52.030;7.110;2023-07-13T01:29:34;100639.66;;;15.82;70.35
34961;BME280;30789;52.030;7.110;2023-07-13T01:32:08;100639.94;;;15.87;70.34
34961;BME280;30789;52.030;7.110;2023-07-13T01:34:35;100638.88;;;15.81;70.46
34961;BME280;30789;52.030;7.110;2023-07-13T01:37:02;100631.25;;;15.85;70.10
34961;BME280;30789;52.030;7.110;2023-07-13T01:39:30;100636.03;;;15.85;70.31
34961;BME280;30789;52.030;7.110;2023-07-13T01:41:57;100630.09;;;15.83;70.26
34961;BME280;30789;52.030;7.110;2023-07-13T01:44:24;100640.38;;;15.86;69.73
34961;BME280;30789;52.030;7.110;2023-07-13T01:46:51;100642.47;;;15.78;70.16
34961;BME280;30789;52.030;7.110;2023-07-13T01:49:17;100637.38;;;15.73;70.36
34961;BME280;30789;52.030;7.110;2023-07-13T01:51:44;100637.22;;;15.84;69.78
34961;BME280;30789;52.030;7.110;2023-07-13T01:54:10;100642.53;;;15.75;70.12
34961;BME280;30789;52.030;7.110;2023-07-13T01:56:38;100640.16;;;15.73;70.03
34961;BME280;30789;52.030;7.110;2023-07-13T01:59:07;100647.78;;;15.69;70.46
34961;BME280;30789;52.030;7.110;2023-07-13T02:01:33;100639.06;;;15.67;70.17
34961;BME280;30789;52.030;7.110;2023-07-13T02:04:00;100633.38;;;15.51;70.85
34961;BME280;30789;52.030;7.110;2023-07-13T02:06:26;100635.06;;;15.45;71.04
34961;BME280;30789;52.030;7.110;2023-07-13T02:08:53;100636.19;;;15.48;71.02
34961;BME280;30789;52.030;7.110;2023-07-13T02:11:20;100635.34;;;15.51;71.18
34961;BME280;30789;52.030;7.110;2023-07-13T02:13:48;100638.44;;;15.56;70.51
34961;BME280;30789;52.030;7.110;2023-07-13T02:16:15;100643.31;;;15.49;70.87
34961;BME280;30789;52.030;7.110;2023-07-13T02:18:41;100637.69;;;15.56;70.80
34961;BME280;30789;52.030;7.110;2023-07-13T02:21:08;100638.28;;;15.40;71.29
34961;BME280;30789;52.030;7.110;2023-07-13T02:23:34;100642.63;;;15.41;72.00
34961;BME280;30789;52.030;7.110;2023-07-13T02:26:03;100648.53;;;15.47;71.61
34961;BME280;30789;52.030;7.110;2023-07-13T02:28:29;100646.88;;;15.49;72.05
34961;BME280;30789;52.030;7.110;2023-07-13T02:31:05;100656.91;;;15.43;71.34
34961;BME280;30789;52.030;7.110;2023-07-13T02:33:32;100659.25;;;15.45;71.33
34961;BME280;30789;52.030;7.110;2023-07-13T02:35:59;100647.03;;;15.38;71.22
34961;BME280;30789;52.030;7.110;2023-07-13T02:38:25;100646.50;;;15.47;70.67
34961;BME280;30789;52.030;7.110;2023-07-13T02:40:52;100643.47;;;15.38;71.45
34961;BME280;30789;52.030;7.110;2023-07-13T02:43:19;100644.38;;;15.28;71.45
34961;BME280;30789;52.030;7.110;2023-07-13T02:45:45;100636.97;;;15.18;71.83
34961;BME280;30789;52.030;7.110;2023-07-13T02:48:14;100645.34;;;15.14;72.39
34961;BME280;30789;52.030;7.110;2023-07-13T02:50:41;100639.38;;;15.16;71.84
34961;BME280;30789;52.030;7.110;2023-07-13T02:53:07;100637.03;;;15.14;72.06
34961;BME280;30789;52.030;7.110;2023-07-13T02:55:34;100643.88;;;15.06;72.33
34961;BME280;30789;52.030;7.110;2023-07-13T02:58:00;100650.16;;;15.10;72.40
34961;BME280;30789;52.030;7.110;2023-07-13T03:00:27;100654.16;;;15.06;72.34
34961;BME280;30789;52.030;7.110;2023-07-13T03:02:53;100654.22;;;15.02;72.88
34961;BME280;30789;52.030;7.110;2023-07-13T03:05:24;100657.75;;;15.06;72.42
34961;BME280;30789;52.030;7.110;2023-07-13T03:07:50;100659.72;;;15.06;72.43
34961;BME280;30789;52.030;7.110;2023-07-13T03:10:17;100658.06;;;15.12;71.96
34961;BME280;30789;52.030;7.110;2023-07-13T03:12:44;100650.16;;;15.10;71.39
34961;BME280;30789;52.030;7.110;2023-07-13T03:15:10;100654.22;;;15.02;72.14
34961;BME280;30789;52.030;7.110;2023-07-13T03:17:37;100647.94;;;14.98;72.25
34961;BME280;30789;52.030;7.110;2023-07-13T03:20:05;100651.81;;;15.04;72.16
34961;BME280;30789;52.030;7.110;2023-07-13T03:22:34;100649.59;;;14.92;72.78
34961;BME280;30789;52.030;7.110;2023-07-13T03:25:00;100653.50;;;14.95;72.62
34961;BME280;30789;52.030;7.110;2023-07-13T03:27:27;100664.56;;;14.98;72.57
34961;BME280;30789;52.030;7.110;2023-07-13T03:29:53;100664.97;;;15.00;72.62
34961;BME280;30789;52.030;7.110;2023-07-13T03:32:20;100669.34;;;14.98;72.86
34961;BME280;30789;52.030;7.110;2023-07-13T03:34:46;100672.47;;;15.03;72.75
34961;BME280;30789;52.030;7.110;2023-07-13T03:37:13;100679.19;;;15.02;72.79
34961;BME280;30789;52.030;7.110;2023-07-13T03:39:41;100677.53;;;15.08;71.80
34961;BME280;30789;52.030;7.110;2023-07-13T03:42:07;100676.28;;;15.13;72.17
34961;BME280;30789;52.030;7.110;2023-07-13T03:44:34;100677.88;;;15.14;72.79
34961;BME280;30789;52.030;7.110;2023-07-13T03:47:01;100675.84;;;15.18;73.43
34961;BME280;30789;52.030;7.110;2023-07-13T03:49:28;100670.66;;;15.20;72.56
34961;BME280;30789;52.030;7.110;2023-07-13T03:51:54;100677.88;;;15.14;73.04
34961;BME280;30789;52.030;7.110;2023-07-13T03:54:21;100687.38;;;15.13;72.47
34961;BME280;30789;52.030;7.110;2023-07-13T03:56:49;100688.59;;;15.12;72.45
34961;BME280;30789;52.030;7.110;2023-07-13T03:59:15;100694.66;;;15.03;72.77
34961;BME280;30789;52.030;7.110;2023-07-13T04:01:43;100687.00;;;15.14;72.50
34961;BME280;30789;52.030;7.110;2023-07-13T04:04:10;100687.34;;;15.16;72.75
34961;BME280;30789;52.030;7.110;2023-07-13T04:06:36;100686.19;;;15.14;73.15
34961;BME280;30789;52.030;7.110;2023-07-13T04:09:04;100685.81;;;15.12;72.95
34961;BME280;30789;52.030;7.110;2023-07-13T04:11:32;100699.25;;;15.17;73.46
34961;BME280;30789;52.030;7.110;2023-07-13T04:14:00;100697.69;;;15.16;73.32
34961;BME280;30789;52.030;7.110;2023-07-13T04:16:27;100706.34;;;15.21;73.34
34961;BME280;30789;52.030;7.110;2023-07-13T04:18:54;100701.16;;;15.23;73.21
34961;BME280;30789;52.030;7.110;2023-07-13T04:21:26;100693.94;;;15.29;73.16
34961;BME280;30789;52.030;7.110;2023-07-13T04:23:52;100705.31;;;15.42;72.67
34961;BME280;30789;52.030;7.110;2023-07-13T04:26:19;100702.63;;;15.31;72.90
34961;BME280;30789;52.030;7.110;2023-07-13T04:28:48;100706.50;;;15.41;72.70
34961;BME280;30789;52.030;7.110;2023-07-13T04:31:16;100702.16;;;15.36;73.20
34961;BME280;30789;52.030;7.110;2023-07-13T04:33:43;100711.47;;;15.23;73.19
34961;BME280;30789;52.030;7.110;2023-07-13T04:36:10;100703.94;;;15.23;73.79
34961;BME280;30789;52.030;7.110;2023-07-13T04:38:37;100710.22;;;15.27;73.72
34961;BME280;30789;52.030;7.110;2023-07-13T04:41:05;100710.31;;;15.20;73.63
34961;BME280;30789;52.030;7.110;2023-07-13T04:43:32;100705.47;;;15.28;74.05
34961;BME280;30789;52.030;7.110;2023-07-13T04:46:03;100705.41;;;15.31;74.14
34961;BME280;30789;52.030;7.110;2023-07-13T04:48:32;100712.47;;;15.39;73.75
34961;BME280;30789;52.030;7.110;2023-07-13T04:50:59;100714.06;;;15.41;74.45
34961;BME280;30789;52.030;7.110;2023-07-13T04:53:27;100704.75;;;15.54;73.68
34961;BME280;30789;52.030;7.110;2023-07-13T04:55:54;100705.22;;;15.49;73.74
34961;BME280;30789;52.030;7.110;2023-07-13T04:58:21;100705.94;;;15.53;74.05
34961;BME280;30789;52.030;7.110;2023-07-13T05:00:49;100712.09;;;15.37;74.16
34961;BME280;30789;52.030;7.110;2023-07-13T05:03:15;100711.22;;;15.44;74.77
34961;BME280;30789;52.030;7.110;2023-07-13T05:05:54;100716.19;;;15.26;75.17
34961;BME280;30789;52.030;7.110;2023-07-13T05:08:21;100720.91;;;15.29;75.34
34961;BME280;30789;52.030;7.110;2023-07-13T05:10:47;100727.16;;;15.36;74.74
34961;BME280;30789;52.030;7.110;2023-07-13T05:13:14;100732.34;;;15.38;74.68
34961;BME280;30789;52.030;7.110;2023-07-13T05:15:41;100733.97;;;15.32;75.07
34961;BME280;30789;52.030;7.110;2023-07-13T05:18:07;100723.59;;;15.39;75.03
34961;BME280;30789;52.030;7.110;2023-07-13T05:20:34;100730.25;;;15.46;75.18
34961;BME280;30789;52.030;7.110;2023-07-13T05:23:01;100736.22;;;15.44;75.15
34961;BME280;30789;52.030;7.110;2023-07-13T05:25:28;100738.44;;;15.56;74.30
34961;BME280;30789;52.030;7.110;2023-07-13T05:27:54;100747.59;;;15.53;74.91
34961;BME280;30789;52.030;7.110;2023-07-13T05:30:21;100740.19;;;15.47;74.78
34961;BME280;30789;52.030;7.110;2023-07-13T05:32:47;100750.31;;;15.60;74.63
34961;BME280;30789;52.030;7.110;2023-07-13T05:35:14;100749.19;;;15.54;74.66
34961;BME280;30789;52.030;7.110;2023-07-13T05:37:41;100746.28;;;15.65;74.96
34961;BME280;30789;52.030;7.110;2023-07-13T05:40:09;100752.56;;;15.69;74.51
34961;BME280;30789;52.030;7.110;2023-07-13T05:42:36;100756.84;;;15.77;74.85
34961;BME280;30789;52.030;7.110;2023-07-13T05:45:03;100754.06;;;15.77;74.59
34961;BME280;30789;52.030;7.110;2023-07-13T05:47:30;100758.97;;;15.66;75.20
34961;BME280;30789;52.030;7.110;2023-07-13T05:49:56;100757.97;;;15.79;74.72
34961;BME280;30789;52.030;7.110;2023-07-13T05:52:23;100757.91;;;15.86;74.73
34961;BME280;30789;52.030;7.110;2023-07-13T05:54:49;100756.63;;;15.91;74.63
34961;BME280;30789;52.030;7.110;2023-07-13T05:57:17;100774.88;;;15.92;74.37
34961;BME280;30789;52.030;7.110;2023-07-13T05:59:43;100765.53;;;15.79;75.17
34961;BME280;30789;52.030;7.110;2023-07-13T06:02:10;100774.66;;;15.79;75.57
34961;BME280;30789;52.030;7.110;2023-07-13T06:04:37;100772.53;;;15.90;75.14
34961;BME280;30789;52.030;7.110;2023-07-13T06:07:04;100763.81;;;15.88;75.60
34961;BME280;30789;52.030;7.110;2023-07-13T06:09:31;100776.03;;;15.94;75.27
34961;BME280;30789;52.030;7.110;2023-07-13T06:11:57;100780.56;;;15.85;75.26
34961;BME280;30789;52.030;7.110;2023-07-13T06:14:25;100779.44;;;16.05;75.04
34961;BME280;30789;52.030;7.110;2023-07-13T06:16:51;100781.19;;;16.22;75.38
34961;BME280;30789;52.030;7.110;2023-07-13T06:19:18;100784.59;;;16.33;74.76
34961;BME280;30789;52.030;7.110;2023-07-13T06:21:45;100801.09;;;16.47;74.27
34961;BME280;30789;52.030;7.110;2023-07-13T06:24:11;100794.63;;;16.54;74.26
34961;BME280;30789;52.030;7.110;2023-07-13T06:26:38;100801.28;;;16.33;74.69
34961;BME280;30789;52.030;7.110;2023-07-13T06:29:04;100808.75;;;16.40;74.25
34961;BME280;30789;52.030;7.110;2023-07-13T06:31:32;100809.31;;;16.54;74.55
34961;BME280;30789;52.030;7.110;2023-07-13T06:33:59;100811.03;;;16.71;73.63
34961;BME280;30789;52.030;7.110;2023-07-13T06:36:25;100802.38;;;16.66;74.28
34961;BME280;30789;52.030;7.110;2023-07-13T06:38:52;100817.19;;;16.59;74.44
34961;BME280;30789;52.030;7.110;2023-07-13T06:43:48;100820.22;;;16.68;74.54
34961;BME280;30789;52.030;7.110;2023-07-13T06:46:15;100816.81;;;16.57;75.55
34961;BME280;30789;52.030;7.110;2023-07-13T06:48:42;100822.38;;;16.57;75.20
34961;BME280;30789;52.030;7.110;2023-07-13T06:51:09;100819.63;;;16.80;74.94
34961;BME280;30789;52.030;7.110;2023-07-13T06:53:35;100835.41;;;16.64;75.46
34961;BME280;30789;52.030;7.110;2023-07-13T06:56:02;100826.34;;;16.83;75.13
34961;BME280;30789;52.030;7.110;2023-07-13T06:58:29;100821.88;;;17.12;74.48
34961;BME280;30789;52.030;7.110;2023-07-13T07:00:55;100823.06;;;17.11;73.88
34961;BME280;30789;52.030;7.110;2023-07-13T07:03:22;100835.28;;;17.17;73.82
34961;BME280;30789;52.030;7.110;2023-07-13T07:05:50;100827.03;;;17.33;73.17
34961;BME280;30789;52.030;7.110;2023-07-13T07:08:16;100828.00;;;17.46;72.06
34961;BME280;30789;52.030;7.110;2023-07-13T07:10:43;100830.94;;;17.59;72.38
34961;BME280;30789;52.030;7.110;2023-07-13T07:13:10;100834.09;;;17.61;72.02
34961;BME280;30789;52.030;7.110;2023-07-13T07:15:37;100829.75;;;17.37;72.48
34961;BME280;30789;52.030;7.110;2023-07-13T07:18:03;100838.00;;;17.44;72.30
34961;BME280;30789;52.030;7.110;2023-07-13T07:20:30;100839.25;;;17.39;72.19
34961;BME280;30789;52.030;7.110;2023-07-13T07:22:59;100838.59;;;17.55;72.02
34961;BME280;30789;52.030;7.110;2023-07-13T07:25:25;100840.78;;;17.63;71.83
34961;BME280;30789;52.030;7.110;2023-07-13T07:27:52;100838.44;;;17.62;71.97
34961;BME280;30789;52.030;7.110;2023-07-13T07:30:18;100847.28;;;17.57;72.11
34961;BME280;30789;52.030;7.110;2023-07-13T07:32:45;100842.38;;;17.64;71.96
34961;BME280;30789;52.030;7.110;2023-07-13T07:35:11;100849.94;;;17.64;71.84
34961;BME280;30789;52.030;7.110;2023-07-13T07:37:38;100849.50;;;17.85;71.45
34961;BME280;30789;52.030;7.110;2023-07-13T07:40:07;100850.16;;;17.73;71.62
34961;BME280;30789;52.030;7.110;2023-07-13T07:42:34;100841.66;;;17.99;71.44
34961;BME280;30789;52.030;7.110;2023-07-13T07:45:01;100850.88;;;17.96;70.89
34961;BME280;30789;52.030;7.110;2023-07-13T07:47:27;100851.88;;;17.86;70.79
34961;BME280;30789;52.030;7.110;2023-07-13T07:49:54;100848.72;;;18.04;70.66
34961;BME280;30789;52.030;7.110;2023-07-13T07:52:20;100846.78;;;18.01;70.58
34961;BME280;30789;52.030;7.110;2023-07-13T07:54:47;100843.88;;;17.88;70.50
34961;BME280;30789;52.030;7.110;2023-07-13T07:57:15;100844.88;;;17.98;71.06
34961;BME280;30789;52.030;7.110;2023-07-13T07:59:41;100840.81;;;18.38;69.94
34961;BME280;30789;52.030;7.110;2023-07-13T08:02:09;100845.53;;;18.41;69.61
34961;BME280;30789;52.030;7.110;2023-07-13T08:04:36;100846.72;;;18.40;69.93
34961;BME280;30789;52.030;7.110;2023-07-13T08:07:04;100849.81;;;18.45;69.99
34961;BME280;30789;52.030;7.110;2023-07-13T08:09:32;100851.56;;;18.39;70.29
34961;BME280;30789;52.030;7.110;2023-07-13T08:11:58;100851.41;;;18.07;69.74
34961;BME280;30789;52.030;7.110;2023-07-13T08:14:26;100852.13;;;18.11;70.34
34961;BME280;30789;52.030;7.110;2023-07-13T08:16:53;100847.44;;;18.24;70.25
34961;BME280;30789;52.030;7.110;2023-07-13T08:19:19;100848.06;;;18.32;70.50
34961;BME280;30789;52.030;7.110;2023-07-13T08:21:46;100851.53;;;18.20;70.34
34961;BME280;30789;52.030;7.110;2023-07-13T08:24:14;100849.63;;;18.52;70.18
34961;BME280;30789;52.030;7.110;2023-07-13T08:26:43;100851.84;;;18.93;68.49
34961;BME280;30789;52.030;7.110;2023-07-13T08:29:10;100847.72;;;19.14;67.51
34961;BME280;30789;52.030;7.110;2023-07-13T08:31:38;100852.97;;;18.63;68.71
34961;BME280;30789;52.030;7.110;2023-07-13T08:34:04;100845.03;;;18.62;69.44
34961;BME280;30789;52.030;7.110;2023-07-13T08:36:31;100852.25;;;18.59;69.33
34961;BME280;30789;52.030;7.110;2023-07-13T08:38:57;100852.25;;;19.08;68.80
34961;BME280;30789;52.030;7.110;2023-07-13T08:41:24;100846.59;;;19.11;67.59
34961;BME280;30789;52.030;7.110;2023-07-13T08:43:55;100844.00;;;19.49;66.18
34961;BME280;30789;52.030;7.110;2023-07-13T08:46:25;100845.88;;;19.23;66.27
34961;BME280;30789;52.030;7.110;2023-07-13T08:48:56;100837.50;;;19.07;66.86
34961;BME280;30789;52.030;7.110;2023-07-13T08:51:37;100845.28;;;19.00;68.02
34961;BME280;30789;52.030;7.110;2023-07-13T08:54:16;100849.97;;;19.19;67.73
34961;BME280;30789;52.030;7.110;2023-07-13T08:56:45;100842.47;;;19.00;67.10
34961;BME280;30789;52.030;7.110;2023-07-13T08:59:14;100850.53;;;18.82;67.51
34961;BME280;30789;52.030;7.110;2023-07-13T09:01:51;100851.66;;;18.68;68.14
34961;BME280;30789;52.030;7.110;2023-07-13T09:04:24;100853.31;;;18.65;68.41
34961;BME280;30789;52.030;7.110;2023-07-13T09:06:59;100850.59;;;18.62;69.20
34961;BME280;30789;52.030;7.110;2023-07-13T09:09:36;100845.81;;;18.79;67.83
34961;BME280;30789;52.030;7.110;2023-07-13T09:12:09;100843.78;;;19.11;67.59
34961;BME280;30789;52.030;7.110;2023-07-13T09:14:43;100847.28;;;19.31;67.20
34961;BME280;30789;52.030;7.110;2023-07-13T09:17:27;100851.41;;;19.55;65.33
34961;BME280;30789;52.030;7.110;2023-07-13T09:20:03;100854.13;;;19.43;65.79
34961;BME280;30789;52.030;7.110;2023-07-13T09:22:37;100854.59;;;19.41;65.76
34961;BME280;30789;52.030;7.110;2023-07-13T09:25:12;100863.06;;;19.22;66.21
34961;BME280;30789;52.030;7.110;2023-07-13T09:27:45;100855.63;;;19.47;65.55
34961;BME280;30789;52.030;7.110;2023-07-13T09:30:30;100864.03;;;19.76;64.38
34961;BME280;30789;52.030;7.110;2023-07-13T09:32:59;100855.78;;;19.97;64.79
34961;BME280;30789;52.030;7.110;2023-07-13T09:35:30;100869.88;;;19.94;64.30
34961;BME280;30789;52.030;7.110;2023-07-13T09:38:01;100860.78;;;20.44;63.26
34961;BME280;30789;52.030;7.110;2023-07-13T09:40:39;100875.09;;;20.20;63.49
34961;BME280;30789;52.030;7.110;2023-07-13T09:43:08;100871.09;;;20.47;63.08
34961;BME280;30789;52.030;7.110;2023-07-13T09:45:40;100871.31;;;20.27;62.86
34961;BME280;30789;52.030;7.110;2023-07-13T09:48:11;100869.06;;;20.34;63.04
34961;BME280;30789;52.030;7.110;2023-07-13T09:50:45;100869.41;;;20.24;63.98
34961;BME280;30789;52.030;7.110;2023-07-13T09:53:15;100875.88;;;19.80;64.31
34961;BME280;30789;52.030;7.110;2023-07-13T09:55:44;100880.19;;;19.68;64.93
34961;BME280;30789;52.030;7.110;2023-07-13T09:58:13;100874.31;;;19.79;64.46
34961;BME280;30789;52.030;7.110;2023-07-13T10:00:53;100865.13;;;19.78;64.58
34961;BME280;30789;52.030;7.110;2023-07-13T10:03:23;100878.47;;;20.15;63.69
34961;BME280;30789;52.030;7.110;2023-07-13T10:06:11;100863.72;;;20.40;62.80
34961;BME280;30789;52.030;7.110;2023-07-13T10:08:39;100862.03;;;20.43;61.95
34961;BME280;30789;52.030;7.110;2023-07-13T10:11:12;100865.75;;;19.98;62.43
34961;BME280;30789;52.030;7.110;2023-07-13T10:13:46;100861.69;;;20.28;62.81
34961;BME280;30789;52.030;7.110;2023-07-13T10:16:14;100864.50;;;20.28;61.12
34961;BME280;30789;52.030;7.110;2023-07-13T10:18:43;100868.44;;;20.02;62.94
34961;BME280;30789;52.030;7.110;2023-07-13T10:21:17;100865.94;;;20.20;62.08
34961;BME280;30789;52.030;7.110;2023-07-13T10:23:50;100861.00;;;20.99;58.54
34961;BME280;30789;52.030;7.110;2023-07-13T10:26:21;100862.78;;;21.74;57.25
34961;BME280;30789;52.030;7.110;2023-07-13T10:28:54;100863.25;;;22.46;56.28
34961;BME280;30789;52.030;7.110;2023-07-13T10:31:24;100860.97;;;23.02;54.48
34961;BME280;30789;52.030;7.110;2023-07-13T10:33:51;100867.34;;;22.94;54.50
34961;BME280;30789;52.030;7.110;2023-07-13T10:36:31;100856.63;;;22.31;54.73
34961;BME280;30789;52.030;7.110;2023-07-13T10:39:02;100860.66;;;23.09;53.51
34961;BME280;30789;52.030;7.110;2023-07-13T10:41:33;100864.69;;;22.51;53.38
34961;BME280;30789;52.030;7.110;2023-07-13T10:44:02;100853.34;;;22.02;55.42
34961;BME280;30789;52.030;7.110;2023-07-13T10:46:32;100856.25;;;22.20;55.75
34961;BME280;30789;52.030;7.110;2023-07-13T10:49:01;100854.47;;;22.14;55.36
34961;BME280;30789;52.030;7.110;2023-07-13T10:51:31;100848.50;;;22.55;53.09
34961;BME280;30789;52.030;7.110;2023-07-13T10:54:15;100847.81;;;22.20;54.05
34961;BME280;30789;52.030;7.110;2023-07-13T10:56:43;100853.81;;;22.01;52.84
34961;BME280;30789;52.030;7.110;2023-07-13T10:59:12;100849.44;;;22.30;54.25
34961;BME280;30789;52.030;7.110;2023-07-13T11:01:50;100860.56;;;23.85;51.15
34961;BME280;30789;52.030;7.110;2023-07-13T11:04:20;100849.06;;;24.34;47.05
34961;BME280;30789;52.030;7.110;2023-07-13T11:06:52;100862.44;;;24.57;46.31
34961;BME280;30789;52.030;7.110;2023-07-13T11:09:36;100855.22;;;24.14;47.97
34961;BME280;30789;52.030;7.110;2023-07-13T11:12:09;100847.22;;;23.04;50.16
34961;BME280;30789;52.030;7.110;2023-07-13T11:14:43;100856.97;;;22.73;52.17
34961;BME280;30789;52.030;7.110;2023-07-13T11:17:35;100850.13;;;23.31;49.31
34961;BME280;30789;52.030;7.110;2023-07-13T11:20:18;100849.59;;;23.24;48.87
34961;BME280;30789;52.030;7.110;2023-07-13T11:22:49;100850.84;;;24.13;47.50
34961;BME280;30789;52.030;7.110;2023-07-13T11:25:30;100849.16;;;24.07;48.54
34961;BME280;30789;52.030;7.110;2023-07-13T11:28:11;100855.19;;;23.06;47.80
34961;BME280;30789;52.030;7.110;2023-07-13T11:30:41;100851.97;;;22.37;50.62
34961;BME280;30789;52.030;7.110;2023-07-13T11:33:13;100855.50;;;21.98;50.94
34961;BME280;30789;52.030;7.110;2023-07-13T11:35:45;100851.09;;;21.54;52.21
34961;BME280;30789;52.030;7.110;2023-07-13T11:38:17;100866.72;;;21.42;53.38
34961;BME280;30789;52.030;7.110;2023-07-13T11:40:46;100893.63;;;20.56;62.44
34961;BME280;30789;52.030;7.110;2023-07-13T11:43:15;100884.81;;;19.14;71.57
34961;BME280;30789;52.030;7.110;2023-07-13T11:45:42;100888.81;;;18.65;71.53
34961;BME280;30789;52.030;7.110;2023-07-13T11:48:19;100885.88;;;18.88;75.48
34961;BME280;30789;52.030;7.110;2023-07-13T11:50:51;100892.25;;;19.37;72.29
34961;BME280;30789;52.030;7.110;2023-07-13T11:53:20;100889.69;;;20.41;70.86
34961;BME280;30789;52.030;7.110;2023-07-13T11:55:50;100886.38;;;21.98;61.76
34961;BME280;30789;52.030;7.110;2023-07-13T11:58:20;100889.50;;;23.40;61.24
34961;BME280;30789;52.030;7.110;2023-07-13T12:00:49;100892.00;;;24.61;58.03
34961;BME280;30789;52.030;7.110;2023-07-13T12:03:20;100884.81;;;24.93;54.56
34961;BME280;30789;52.030;7.110;2023-07-13T12:05:56;100893.28;;;25.87;49.71
34961;BME280;30789;52.030;7.110;2023-07-13T12:08:25;100881.94;;;26.25;48.84
34961;BME280;30789;52.030;7.110;2023-07-13T12:11:04;100879.84;;;25.59;47.07
34961;BME280;30789;52.030;7.110;2023-07-13T12:13:36;100885.97;;;25.10;47.03
34961;BME280;30789;52.030;7.110;2023-07-13T12:16:11;100879.34;;;24.98;47.51
34961;BME280;30789;52.030;7.110;2023-07-13T12:18:39;100883.81;;;24.31;48.47
34961;BME280;30789;52.030;7.110;2023-07-13T12:21:12;100869.47;;;23.29;48.81
34961;BME280;30789;52.030;7.110;2023-07-13T12:23:43;100881.84;;;23.77;51.99
34961;BME280;30789;52.030;7.110;2023-07-13T12:26:11;100881.16;;;24.27;49.61
34961;BME280;30789;52.030;7.110;2023-07-13T12:28:44;100873.06;;;24.62;47.14
34961;BME280;30789;52.030;7.110;2023-07-13T12:31:23;100880.75;;;24.94;44.61
34961;BME280;30789;52.030;7.110;2023-07-13T12:33:56;100877.28;;;24.99;44.77
34961;BME280;30789;52.030;7.110;2023-07-13T12:36:23;100882.63;;;24.97;43.74
34961;BME280;30789;52.030;7.110;2023-07-13T12:38:52;100885.03;;;24.30;45.82
34961;BME280;30789;52.030;7.110;2023-07-13T12:41:20;100879.19;;;23.46;47.46
34961;BME280;30789;52.030;7.110;2023-07-13T12:43:48;100884.94;;;23.43;47.86
34961;BME280;30789;52.030;7.110;2023-07-13T12:46:20;100883.66;;;22.68;49.68
34961;BME280;30789;52.030;7.110;2023-07-13T12:48:49;100894.69;;;22.63;50.96
34961;BME280;30789;52.030;7.110;2023-07-13T12:51:20;100899.72;;;22.68;50.34
34961;BME280;30789;52.030;7.110;2023-07-13T12:53:50;100898.75;;;22.62;51.12
34961;BME280;30789;52.030;7.110;2023-07-13T12:56:23;100897.00;;;22.55;52.30
34961;BME280;30789;52.030;7.110;2023-07-13T12:58:56;100902.34;;;22.32;51.73
34961;BME280;30789;52.030;7.110;2023-07-13T13:01:26;100905.69;;;22.18;51.21